Time;durP1;ratioP1;P1;durP2;ratioP2;P2;SDS_P1;SDS_P2;PMS_P1;PMS_P2;Temp;Humidity;BMP_temperature;BMP_pressure;BME280_temperature;BME280_humidity;BME280_pressure;Samples;Min_cycle;Max_cycle;Signal;HPM_P1;HPM_P2
2022/07/23 00:00:26;;;;;;;2.85;0.40;;;16.60;99.90;;;;;;4951901;28;20030;-76
2022/07/23 00:02:53;;;;;;;0.60;0.30;;;16.40;99.90;;;;;;4948242;28;20037;-75
2022/07/23 00:05:21;;;;;;;1.02;0.28;;;16.30;99.90;;;;;;4955093;29;20078;-75
2022/07/23 00:07:48;;;;;;;2.05;0.40;;;16.10;99.90;;;;;;4951039;29;20036;-75
2022/07/23 00:10:16;;;;;;;0.88;0.30;;;16.00;99.90;;;;;;4946298;28;20115;-73
2022/07/23 00:12:43;;;;;;;2.72;0.40;;;15.90;99.90;;;;;;4937133;29;20039;-74
2022/07/23 00:15:11;;;;;;;4.85;0.40;;;15.70;99.90;;;;;;4935565;29;20020;-74
2022/07/23 00:17:38;;;;;;;2.55;0.50;;;15.70;99.90;;;;;;4945810;29;20045;-75
2022/07/23 00:20:06;;;;;;;2.63;0.52;;;15.70;99.90;;;;;;4953937;28;20032;-76
2022/07/23 00:22:34;;;;;;;3.35;0.40;;;15.60;99.90;;;;;;4940044;29;20119;-74
2022/07/23 00:25:01;;;;;;;4.60;1.23;;;15.70;99.90;;;;;;4939874;29;20478;-78
2022/07/23 00:27:29;;;;;;;2.00;0.70;;;15.80;99.90;;;;;;4942021;28;20108;-75
2022/07/23 00:29:56;;;;;;;0.63;0.40;;;16.00;99.90;;;;;;4950191;29;20047;-76
2022/07/23 00:32:23;;;;;;;1.63;0.40;;;16.20;99.90;;;;;;4950920;28;20073;-75
2022/07/23 00:34:51;;;;;;;4.40;0.65;;;16.40;99.90;;;;;;4943512;29;20043;-77
2022/07/23 00:37:18;;;;;;;4.35;1.15;;;16.50;99.90;;;;;;4951081;28;20089;-78
2022/07/23 00:39:46;;;;;;;1.05;0.47;;;16.60;99.90;;;;;;4946506;29;20126;-75
2022/07/23 00:42:13;;;;;;;2.17;0.47;;;16.60;99.90;;;;;;4950843;28;20027;-77
2022/07/23 00:44:41;;;;;;;0.63;0.20;;;16.60;99.90;;;;;;4949651;29;20466;-77
2022/07/23 00:47:08;;;;;;;2.85;0.40;;;16.80;99.90;;;;;;4951231;28;20110;-78
2022/07/23 00:49:35;;;;;;;1.45;0.30;;;16.90;99.90;;;;;;4947531;28;20055;-78
2022/07/23 00:52:06;;;;;;;2.70;0.20;;;17.00;99.90;;;;;;4937506;29;20040;-82
2022/07/23 00:54:33;;;;;;;2.40;0.63;;;17.00;99.90;;;;;;4947767;28;20066;-82
2022/07/23 00:57:01;;;;;;;2.25;0.30;;;17.10;99.90;;;;;;4946654;28;20098;-78
2022/07/23 00:59:28;;;;;;;2.20;0.90;;;17.50;99.90;;;;;;4950354;28;20074;-78
2022/07/23 01:01:55;;;;;;;4.30;0.50;;;18.00;99.90;;;;;;4943395;29;20150;-78
2022/07/23 01:04:23;;;;;;;6.00;0.55;;;18.20;99.90;;;;;;4952734;29;20047;-77
2022/07/23 01:06:50;;;;;;;1.08;0.30;;;18.40;99.90;;;;;;4951356;28;20098;-80
2022/07/23 01:09:18;;;;;;;1.73;0.68;;;18.90;99.90;;;;;;4951860;29;20114;-81
2022/07/23 01:11:47;;;;;;;1.75;0.68;;;19.20;99.90;;;;;;4939267;29;20083;-85
2022/07/23 01:14:19;;;;;;;1.27;0.40;;;19.50;99.90;;;;;;4953110;28;20034;-78
2022/07/23 01:16:48;;;;;;;3.72;0.43;;;20.10;99.90;;;;;;4944821;29;20031;-79
2022/07/23 01:19:16;;;;;;;1.23;0.40;;;20.00;99.90;;;;;;4951985;28;20038;-78
2022/07/23 01:21:50;;;;;;;0.50;0.35;;;19.80;99.90;;;;;;4950272;28;20478;-78
2022/07/23 01:24:20;;;;;;;1.95;0.60;;;19.40;99.90;;;;;;4952945;29;20593;-79
2022/07/23 01:26:49;;;;;;;0.65;0.65;;;18.90;99.90;;;;;;4942042;28;20047;-77
2022/07/23 01:29:18;;;;;;;1.92;0.25;;;18.40;99.90;;;;;;4949108;29;20042;-76
2022/07/23 01:31:45;;;;;;;1.98;0.28;;;18.00;99.90;;;;;;4948535;29;20518;-76
2022/07/23 01:34:13;;;;;;;1.30;0.22;;;17.80;99.90;;;;;;4949400;29;20592;-78
2022/07/23 01:36:40;;;;;;;2.38;0.60;;;17.70;99.90;;;;;;4944716;29;20027;-76
2022/07/23 01:39:08;;;;;;;2.90;0.60;;;17.70;99.90;;;;;;4949892;28;20690;-78
2022/07/23 01:41:36;;;;;;;2.95;0.25;;;17.70;99.90;;;;;;4948376;28;20043;-76
2022/07/23 01:44:03;;;;;;;0.50;0.50;;;17.60;99.90;;;;;;4952342;29;20039;-77
2022/07/23 01:46:31;;;;;;;3.70;0.47;;;18.30;99.90;;;;;;4946542;28;20386;-77
2022/07/23 01:48:58;;;;;;;0.98;0.40;;;18.70;99.90;;;;;;4946993;28;20031;-76
2022/07/23 01:51:26;;;;;;;0.70;0.32;;;18.60;99.90;;;;;;4943805;28;20562;-78
2022/07/23 01:53:53;;;;;;;3.67;0.77;;;18.40;99.90;;;;;;4951951;28;20035;-78
2022/07/23 01:56:20;;;;;;;1.50;0.32;;;18.30;99.90;;;;;;4937063;28;20110;-76
2022/07/23 01:58:49;;;;;;;2.30;0.40;;;18.50;99.90;;;;;;4947260;29;20410;-76
2022/07/23 02:01:18;;;;;;;1.20;0.65;;;19.20;99.90;;;;;;4942523;29;20054;-77
2022/07/23 02:03:45;;;;;;;1.70;0.32;;;19.90;99.90;;;;;;4942664;28;20043;-78
2022/07/23 02:06:12;;;;;;;2.15;0.43;;;20.80;99.90;;;;;;4941187;29;20114;-78
2022/07/23 02:08:40;;;;;;;1.08;0.30;;;22.10;99.90;;;;;;4941034;28;20042;-77
2022/07/23 02:11:07;;;;;;;2.65;0.60;;;23.30;99.90;;;;;;4938172;28;20750;-77
2022/07/23 02:13:35;;;;;;;1.40;0.38;;;23.80;99.90;;;;;;4943354;28;20035;-76
2022/07/23 02:16:03;;;;;;;0.57;0.30;;;23.50;99.90;;;;;;4941490;29;20026;-75
2022/07/23 02:18:30;;;;;;;1.25;0.20;;;23.00;99.90;;;;;;4943360;29;20131;-77
2022/07/23 02:20:58;;;;;;;0.10;0.10;;;22.60;99.90;;;;;;4941228;29;20027;-76
2022/07/23 02:23:25;;;;;;;2.28;0.20;;;22.80;99.90;;;;;;4947273;28;20051;-77
2022/07/23 02:25:52;;;;;;;2.17;0.95;;;22.60;99.90;;;;;;4936987;28;20031;-76
2022/07/23 02:28:20;;;;;;;3.25;0.52;;;21.80;99.90;;;;;;4941679;29;20027;-77
2022/07/23 02:30:47;;;;;;;1.65;0.35;;;20.80;99.90;;;;;;4941576;28;20034;-78
2022/07/23 02:33:15;;;;;;;2.10;0.38;;;20.20;99.90;;;;;;4939193;29;20035;-79
2022/07/23 02:35:42;;;;;;;2.08;0.20;;;19.70;99.90;;;;;;4942377;29;20039;-76
2022/07/23 02:38:09;;;;;;;1.40;0.30;;;19.30;99.90;;;;;;4944617;29;20027;-79
2022/07/23 02:40:37;;;;;;;0.63;0.20;;;19.00;99.90;;;;;;4946103;29;20035;-76
2022/07/23 02:43:04;;;;;;;0.98;0.40;;;18.70;99.90;;;;;;4939472;29;20035;-73
2022/07/23 02:45:32;;;;;;;5.60;1.85;;;18.40;99.90;;;;;;4942746;28;20028;-75
2022/07/23 02:47:59;;;;;;;1.10;0.30;;;18.10;99.90;;;;;;4940924;29;20029;-74
2022/07/23 02:50:26;;;;;;;0.40;0.25;;;18.00;99.90;;;;;;4948528;28;20038;-73
2022/07/23 02:52:54;;;;;;;2.40;0.30;;;18.10;99.90;;;;;;4940852;28;20707;-77
2022/07/23 02:55:21;;;;;;;1.33;0.55;;;18.30;99.90;;;;;;4941475;28;20031;-73
2022/07/23 02:57:49;;;;;;;1.05;0.30;;;18.60;99.90;;;;;;4939180;29;20510;-74
2022/07/23 03:00:16;;;;;;;0.47;0.22;;;18.80;99.90;;;;;;4941131;28;20047;-74
2022/07/23 03:02:44;;;;;;;2.67;0.40;;;18.90;99.90;;;;;;4939603;29;22064;-75
2022/07/23 03:05:11;;;;;;;1.35;0.30;;;18.90;99.90;;;;;;4940904;28;20043;-74
2022/07/23 03:07:38;;;;;;;1.42;0.30;;;18.70;99.90;;;;;;4941347;29;20482;-73
2022/07/23 03:10:06;;;;;;;2.58;0.47;;;18.20;99.90;;;;;;4943273;28;20031;-73
2022/07/23 03:12:34;;;;;;;0.60;0.30;;;17.70;99.90;;;;;;4943341;29;20463;-74
2022/07/23 03:15:01;;;;;;;3.00;0.90;;;17.30;99.90;;;;;;4947661;28;20119;-77
2022/07/23 03:17:29;;;;;;;3.33;0.30;;;17.00;99.90;;;;;;4943725;29;20035;-73
2022/07/23 03:19:56;;;;;;;2.67;0.30;;;16.70;99.90;;;;;;4945552;29;20042;-77
2022/07/23 03:22:24;;;;;;;0.38;0.28;;;16.60;99.90;;;;;;4938349;29;20035;-74
2022/07/23 03:24:54;;;;;;;1.30;0.40;;;16.60;99.90;;;;;;4946612;29;20023;-75
2022/07/23 03:27:26;;;;;;;2.67;0.45;;;16.50;99.90;;;;;;4939507;29;20034;-77
2022/07/23 03:29:58;;;;;;;0.65;0.43;;;16.50;99.90;;;;;;4945490;29;20059;-73
2022/07/23 03:32:25;;;;;;;0.85;0.40;;;16.60;99.90;;;;;;4943860;28;20027;-73
2022/07/23 03:34:53;;;;;;;2.97;0.55;;;16.60;99.90;;;;;;4940675;28;20046;-76
2022/07/23 03:37:21;;;;;;;1.60;0.20;;;16.90;99.90;;;;;;4943434;29;20027;-77
2022/07/23 03:39:48;;;;;;;3.17;0.40;;;17.00;99.90;;;;;;4945199;29;20122;-77
2022/07/23 03:42:16;;;;;;;0.60;0.25;;;17.10;99.90;;;;;;4942933;28;20047;-74
2022/07/23 03:44:43;;;;;;;2.90;0.30;;;17.40;99.90;;;;;;4945183;29;20031;-77
2022/07/23 03:47:10;;;;;;;2.50;0.25;;;17.40;99.90;;;;;;4942638;28;20037;-76
2022/07/23 03:49:38;;;;;;;0.68;0.20;;;17.40;99.90;;;;;;4951562;29;20414;-78
2022/07/23 03:52:05;;;;;;;1.65;0.20;;;17.40;99.90;;;;;;4947473;29;20066;-78
2022/07/23 03:54:33;;;;;;;2.70;0.30;;;17.30;99.90;;;;;;4946246;29;20063;-74
2022/07/23 03:57:00;;;;;;;2.05;0.50;;;17.40;99.90;;;;;;4950585;29;20097;-76
2022/07/23 03:59:28;;;;;;;7.03;0.93;;;17.30;99.90;;;;;;4952623;28;20038;-77
2022/07/23 04:01:55;;;;;;;0.65;0.20;;;17.20;99.90;;;;;;4937050;29;20043;-80
2022/07/23 04:04:22;;;;;;;0.80;0.15;;;17.20;99.90;;;;;;4945892;28;20066;-75
2022/07/23 04:06:50;;;;;;;1.05;0.32;;;17.30;99.90;;;;;;4944224;29;20023;-76
2022/07/23 04:09:17;;;;;;;1.55;0.22;;;17.40;99.90;;;;;;4949301;28;20034;-77
2022/07/23 04:11:44;;;;;;;4.22;0.50;;;17.60;99.90;;;;;;4943373;28;20114;-75
2022/07/23 04:14:12;;;;;;;0.63;0.30;;;18.00;99.90;;;;;;4944261;29;20019;-79
2022/07/23 04:16:39;;;;;;;1.20;0.30;;;17.80;99.90;;;;;;4943783;28;20102;-77
2022/07/23 04:19:07;;;;;;;1.10;0.63;;;17.50;99.90;;;;;;4943487;29;20027;-73
2022/07/23 04:21:34;;;;;;;1.88;0.40;;;17.10;99.90;;;;;;4941607;29;20149;-76
2022/07/23 04:24:02;;;;;;;2.15;0.95;;;16.70;99.90;;;;;;4936495;29;20024;-75
2022/07/23 04:26:29;;;;;;;0.25;0.10;;;16.40;99.90;;;;;;4944931;29;20046;-76
2022/07/23 04:29:00;;;;;;;2.65;0.65;;;16.30;99.90;;;;;;4941647;28;20023;-79
2022/07/23 04:31:27;;;;;;;0.60;0.20;;;16.20;99.90;;;;;;4943367;29;20027;-76
2022/07/23 04:33:54;;;;;;;0.40;0.40;;;16.20;99.90;;;;;;4943800;29;20043;-81
2022/07/23 04:36:22;;;;;;;0.20;0.20;;;16.20;99.90;;;;;;4942195;28;20038;-76
2022/07/23 04:38:49;;;;;;;0.82;0.40;;;16.20;99.90;;;;;;4943687;28;20030;-77
2022/07/23 04:41:17;;;;;;;1.73;0.60;;;16.30;99.90;;;;;;4945132;29;20070;-79
2022/07/23 04:43:44;;;;;;;0.60;0.30;;;16.30;99.90;;;;;;4943349;28;20028;-76
2022/07/23 04:46:12;;;;;;;3.10;2.72;;;16.30;99.90;;;;;;4941048;28;20390;-76
2022/07/23 04:48:39;;;;;;;1.92;1.00;;;16.40;99.90;;;;;;4943663;29;20038;-76
2022/07/23 04:51:07;;;;;;;4.07;0.70;;;16.50;99.90;;;;;;4940112;29;20394;-77
2022/07/23 04:53:34;;;;;;;1.92;1.25;;;16.60;99.90;;;;;;4939924;29;20038;-77
2022/07/23 04:56:01;;;;;;;3.17;0.70;;;16.60;99.90;;;;;;4944905;29;20470;-79
2022/07/23 04:58:29;;;;;;;1.70;1.13;;;16.60;99.90;;;;;;4941030;29;20035;-78
2022/07/23 05:00:57;;;;;;;0.82;0.45;;;16.60;99.90;;;;;;4941445;29;20486;-81
2022/07/23 05:03:25;;;;;;;3.78;0.57;;;16.60;99.90;;;;;;4942524;29;20054;-76
2022/07/23 05:05:52;;;;;;;1.15;0.45;;;16.60;99.90;;;;;;4943424;29;20336;-79
2022/07/23 05:08:20;;;;;;;2.53;1.10;;;16.50;99.90;;;;;;4943167;28;20035;-80
2022/07/23 05:10:47;;;;;;;1.95;1.35;;;16.50;99.90;;;;;;4942578;28;20035;-79
2022/07/23 05:13:18;;;;;;;7.78;4.30;;;16.60;99.90;;;;;;4942627;29;20122;-77
2022/07/23 05:15:46;;;;;;;17.02;10.70;;;16.50;99.90;;;;;;4939277;29;20027;-81
2022/07/23 05:18:14;;;;;;;8.05;4.78;;;16.50;99.90;;;;;;4945825;28;20023;-79
2022/07/23 05:20:41;;;;;;;4.85;3.08;;;16.60;99.90;;;;;;4947838;28;20457;-76
2022/07/23 05:23:09;;;;;;;3.75;1.45;;;16.60;99.90;;;;;;4931687;28;20034;-79
2022/07/23 05:25:37;;;;;;;1.00;0.47;;;16.50;99.90;;;;;;4952744;29;20042;-74
2022/07/23 05:28:05;;;;;;;1.45;0.20;;;16.50;99.90;;;;;;4950210;28;20039;-75
2022/07/23 05:30:32;;;;;;;0.30;0.10;;;16.20;99.90;;;;;;4951401;29;20027;-76
2022/07/23 05:33:00;;;;;;;0.82;0.10;;;16.00;99.90;;;;;;4942122;28;20027;-76
2022/07/23 05:35:27;;;;;;;0.13;0.10;;;15.80;99.90;;;;;;4953082;29;20035;-75
2022/07/23 05:37:55;;;;;;;0.40;0.25;;;15.80;99.90;;;;;;4950883;29;20039;-75
2022/07/23 05:40:22;;;;;;;0.43;0.30;;;15.70;99.90;;;;;;4951933;28;20043;-75
2022/07/23 05:42:50;;;;;;;1.08;0.38;;;15.60;99.90;;;;;;4951345;28;20061;-79
2022/07/23 05:45:17;;;;;;;2.20;0.50;;;15.50;99.90;;;;;;4952692;29;20038;-75
2022/07/23 05:47:49;;;;;;;1.45;1.05;;;15.40;99.90;;;;;;4947477;28;20075;-75
2022/07/23 05:50:17;;;;;;;0.38;0.30;;;15.40;99.90;;;;;;4950508;29;20016;-76
2022/07/23 05:52:44;;;;;;;0.25;0.20;;;15.30;99.90;;;;;;4950655;29;20101;-77
2022/07/23 05:55:12;;;;;;;0.35;0.20;;;15.40;99.90;;;;;;4952492;29;20023;-75
2022/07/23 05:57:40;;;;;;;0.60;0.32;;;15.30;99.90;;;;;;4950927;28;20552;-78
2022/07/23 06:00:10;;;;;;;2.45;1.15;;;15.30;99.90;;;;;;4951276;29;20031;-75
2022/07/23 06:02:39;;;;;;;1.90;0.85;;;15.30;99.90;;;;;;4939057;29;20099;-77
2022/07/23 06:05:07;;;;;;;0.60;0.30;;;15.40;99.90;;;;;;4946921;29;20121;-74
2022/07/23 06:07:35;;;;;;;0.68;0.40;;;15.50;99.90;;;;;;4922947;29;20381;-74
2022/07/23 06:10:03;;;;;;;0.82;0.30;;;15.50;99.90;;;;;;4939295;29;20043;-77
2022/07/23 06:12:31;;;;;;;0.82;0.47;;;15.50;99.90;;;;;;4949249;28;20039;-75
2022/07/23 06:14:59;;;;;;;0.90;0.38;;;15.40;99.90;;;;;;4951988;28;20035;-73
2022/07/23 06:17:27;;;;;;;3.00;0.80;;;15.40;99.90;;;;;;4944940;29;20091;-78
2022/07/23 06:19:55;;;;;;;1.20;0.73;;;15.30;99.90;;;;;;4952187;29;20105;-78
2022/07/23 06:22:22;;;;;;;0.80;0.35;;;15.20;99.90;;;;;;4942006;29;20059;-78
2022/07/23 06:24:54;;;;;;;1.10;0.40;;;15.10;99.90;;;;;;4934335;29;20023;-78
2022/07/23 06:27:21;;;;;;;0.63;0.40;;;15.10;99.90;;;;;;4951292;29;20043;-76
2022/07/23 06:29:49;;;;;;;0.65;0.60;;;15.10;99.90;;;;;;4951282;29;20038;-77
2022/07/23 06:32:16;;;;;;;1.05;0.90;;;15.00;99.90;;;;;;4946843;28;20023;-77
2022/07/23 06:34:43;;;;;;;4.60;3.58;;;15.00;99.90;;;;;;4951324;29;20077;-79
2022/07/23 06:37:11;;;;;;;2.20;1.90;;;14.90;99.90;;;;;;4940862;29;20031;-80
2022/07/23 06:39:38;;;;;;;2.38;2.17;;;14.90;99.90;;;;;;4951726;29;20032;-77
2022/07/23 06:42:06;;;;;;;0.80;0.57;;;14.80;99.90;;;;;;4947295;28;20426;-78
2022/07/23 06:44:33;;;;;;;0.20;0.20;;;14.70;99.90;;;;;;4950455;29;20046;-75
2022/07/23 06:47:01;;;;;;;0.75;0.17;;;14.60;99.90;;;;;;4950498;29;20146;-78
2022/07/23 06:49:28;;;;;;;1.30;0.20;;;14.60;99.90;;;;;;4952474;28;20636;-80
2022/07/23 06:51:55;;;;;;;0.13;0.10;;;14.50;99.90;;;;;;4943201;28;20046;-77
2022/07/23 06:54:23;;;;;;;0.28;0.17;;;14.50;99.90;;;;;;4951487;29;20121;-76
2022/07/23 06:56:50;;;;;;;0.88;0.20;;;14.50;99.90;;;;;;4948175;28;20027;-76
2022/07/23 06:59:18;;;;;;;3.55;0.45;;;14.50;99.90;;;;;;4951691;29;20055;-78
2022/07/23 07:01:45;;;;;;;0.40;0.25;;;14.40;99.90;;;;;;4944468;29;20047;-78
2022/07/23 07:04:12;;;;;;;1.60;0.93;;;14.40;99.90;;;;;;4952491;28;20102;-79
2022/07/23 07:06:40;;;;;;;1.35;0.80;;;14.40;99.90;;;;;;4949071;28;20113;-76
2022/07/23 07:09:08;;;;;;;0.98;0.35;;;14.30;99.90;;;;;;4948798;28;20028;-79
2022/07/23 07:11:35;;;;;;;1.50;0.90;;;14.30;99.90;;;;;;4950086;29;20035;-76
2022/07/23 07:14:04;;;;;;;3.67;2.55;;;14.40;99.90;;;;;;4953476;28;20570;-75
2022/07/23 07:16:31;;;;;;;11.00;8.32;;;14.30;99.90;;;;;;4950616;29;20035;-77
2022/07/23 07:18:59;;;;;;;21.15;15.32;;;14.40;99.90;;;;;;4956198;28;20054;-77
2022/07/23 07:21:26;;;;;;;8.02;5.68;;;14.30;99.90;;;;;;4950109;28;20044;-74
2022/07/23 07:23:54;;;;;;;7.75;7.05;;;14.40;99.90;;;;;;4944547;29;20066;-77
2022/07/23 07:26:21;;;;;;;3.00;2.75;;;14.40;99.90;;;;;;4952720;28;20031;-78
2022/07/23 07:28:48;;;;;;;1.40;1.02;;;14.40;99.90;;;;;;4954723;28;20072;-79
2022/07/23 07:31:16;;;;;;;2.95;2.40;;;14.40;99.90;;;;;;4953246;29;20065;-74
2022/07/23 07:33:44;;;;;;;1.60;1.10;;;14.40;99.90;;;;;;4955704;28;20059;-78
2022/07/23 07:36:15;;;;;;;0.75;0.50;;;14.40;99.90;;;;;;4952340;29;20513;-75
2022/07/23 07:38:42;;;;;;;2.28;0.40;;;14.40;99.90;;;;;;4955796;28;20247;-78
2022/07/23 07:41:10;;;;;;;1.00;0.90;;;14.30;99.90;;;;;;4952498;29;20043;-77
2022/07/23 07:43:37;;;;;;;3.50;0.80;;;14.40;99.90;;;;;;4952559;29;20500;-80
2022/07/23 07:46:09;;;;;;;0.60;0.40;;;14.30;99.90;;;;;;4952324;29;20038;-79
2022/07/23 07:48:37;;;;;;;0.80;0.60;;;14.40;99.90;;;;;;4940387;29;20390;-80
2022/07/23 07:51:06;;;;;;;0.35;0.30;;;14.30;99.90;;;;;;4954031;29;20047;-81
2022/07/23 07:53:33;;;;;;;1.08;0.65;;;14.30;99.90;;;;;;4954101;28;20082;-80
2022/07/23 07:56:00;;;;;;;3.38;1.00;;;14.30;99.90;;;;;;4952302;29;20023;-80
2022/07/23 07:58:28;;;;;;;2.40;0.80;;;14.30;99.90;;;;;;4954170;29;20106;-74
2022/07/23 08:00:55;;;;;;;2.40;1.02;;;14.20;99.90;;;;;;4952351;29;20504;-78
2022/07/23 08:03:22;;;;;;;3.30;1.08;;;14.30;99.90;;;;;;4954203;28;20517;-79
2022/07/23 08:05:50;;;;;;;1.40;1.10;;;14.30;99.90;;;;;;4948260;29;20493;-74
2022/07/23 08:08:17;;;;;;;1.45;0.85;;;14.20;99.90;;;;;;4937190;29;20028;-79
2022/07/23 08:10:45;;;;;;;1.38;0.93;;;14.20;99.90;;;;;;4941796;29;20039;-75
2022/07/23 08:13:16;;;;;;;1.83;1.10;;;14.20;99.90;;;;;;4936616;29;20593;-76
2022/07/23 08:15:44;;;;;;;1.17;1.08;;;14.20;99.90;;;;;;4952870;29;20106;-76
2022/07/23 08:18:11;;;;;;;2.33;0.77;;;14.10;99.90;;;;;;4953076;29;20055;-79
2022/07/23 08:20:39;;;;;;;1.02;0.60;;;14.10;99.90;;;;;;4953133;28;20031;-77
2022/07/23 08:23:08;;;;;;;1.02;0.60;;;14.00;99.90;;;;;;4949537;28;20038;-75
2022/07/23 08:25:41;;;;;;;1.60;0.73;;;13.90;99.90;;;;;;4954118;28;20031;-77
2022/07/23 08:28:11;;;;;;;2.03;0.68;;;13.80;99.90;;;;;;4937817;29;20043;-80
2022/07/23 08:30:40;;;;;;;1.50;0.60;;;13.70;99.90;;;;;;4949197;29;20332;-77
2022/07/23 08:33:13;;;;;;;1.23;0.50;;;13.70;99.90;;;;;;4941688;29;20073;-77
2022/07/23 08:35:49;;;;;;;1.20;0.70;;;13.60;99.90;;;;;;4952889;29;20039;-78
2022/07/23 08:38:19;;;;;;;3.40;1.25;;;13.50;99.90;;;;;;4937854;29;20078;-78
2022/07/23 08:40:54;;;;;;;2.22;1.38;;;13.50;99.90;;;;;;4950873;29;20142;-76
2022/07/23 08:43:25;;;;;;;4.97;2.58;;;13.40;99.90;;;;;;4951277;29;20118;-77
2022/07/23 08:45:58;;;;;;;2.53;1.50;;;13.40;99.90;;;;;;4952928;29;20043;-76
2022/07/23 08:48:28;;;;;;;1.67;1.00;;;13.30;99.90;;;;;;4952021;29;20097;-74
2022/07/23 08:50:58;;;;;;;2.83;1.35;;;13.40;99.90;;;;;;4950580;28;20114;-74
2022/07/23 08:53:27;;;;;;;1.55;1.10;;;13.40;99.90;;;;;;4934997;29;20020;-75
2022/07/23 08:56:01;;;;;;;2.20;1.40;;;13.40;99.90;;;;;;4944420;29;20058;-76
2022/07/23 08:58:29;;;;;;;4.47;1.98;;;13.40;99.90;;;;;;4953196;29;20019;-75
2022/07/23 09:00:58;;;;;;;2.88;1.80;;;13.50;99.90;;;;;;4949199;29;20031;-75
2022/07/23 09:03:31;;;;;;;4.05;2.85;;;13.50;99.90;;;;;;4950741;29;20486;-74
2022/07/23 09:06:01;;;;;;;4.80;3.08;;;13.50;99.90;;;;;;4952281;29;20074;-74
2022/07/23 09:08:42;;;;;;;2.35;1.50;;;13.50;99.90;;;;;;4935059;29;20367;-75
2022/07/23 09:11:12;;;;;;;2.63;1.77;;;13.50;99.90;;;;;;4939873;29;20590;-77
2022/07/23 09:13:43;;;;;;;2.50;1.85;;;13.50;99.90;;;;;;4937260;29;20055;-73
2022/07/23 09:16:15;;;;;;;2.58;1.88;;;13.40;99.90;;;;;;4951981;29;20031;-74
2022/07/23 09:19:00;;;;;;;2.35;1.65;;;13.40;99.90;;;;;;4951252;29;20119;-77
2022/07/23 09:21:38;;;;;;;2.15;1.40;;;13.40;99.90;;;;;;4947529;29;20118;-79
2022/07/23 09:24:15;;;;;;;3.35;2.90;;;13.40;99.90;;;;;;4938080;29;20023;-78
2022/07/23 09:26:44;;;;;;;2.45;1.83;;;13.40;99.90;;;;;;4952214;29;20027;-77
2022/07/23 09:29:22;;;;;;;3.85;1.75;;;13.30;99.90;;;;;;4953699;29;20589;-75
2022/07/23 09:31:50;;;;;;;2.20;1.50;;;13.30;99.90;;;;;;4941105;29;20066;-76
2022/07/23 09:34:21;;;;;;;1.45;1.35;;;13.20;99.90;;;;;;4952345;29;20106;-79
2022/07/23 09:36:50;;;;;;;3.20;1.58;;;13.10;99.90;;;;;;4945406;29;20036;-75
2022/07/23 09:39:28;;;;;;;1.92;1.02;;;13.10;99.90;;;;;;4944231;29;20082;-79
2022/07/23 09:41:56;;;;;;;1.80;0.93;;;13.00;99.90;;;;;;4946113;29;20027;-78
2022/07/23 09:44:24;;;;;;;1.63;1.05;;;12.90;99.90;;;;;;4952851;29;20027;-78
2022/07/23 09:46:57;;;;;;;2.58;1.73;;;12.90;99.90;;;;;;4950736;29;20039;-73
2022/07/23 09:49:25;;;;;;;4.22;1.48;;;12.80;99.90;;;;;;4951899;29;20031;-76
2022/07/23 09:51:57;;;;;;;1.38;1.20;;;12.80;99.90;;;;;;4949091;29;20031;-78
2022/07/23 09:54:31;;;;;;;2.10;1.58;;;12.70;99.90;;;;;;4953227;29;20031;-75
2022/07/23 09:57:00;;;;;;;2.80;1.40;;;12.70;99.90;;;;;;4944054;29;20095;-78
2022/07/23 09:59:30;;;;;;;3.25;1.20;;;12.70;99.90;;;;;;4947039;29;20405;-78
2022/07/23 10:01:59;;;;;;;1.67;1.30;;;12.60;99.90;;;;;;4946880;29;20071;-78
2022/07/23 10:04:29;;;;;;;2.33;1.70;;;12.60;99.90;;;;;;4951965;29;20059;-77
2022/07/23 10:07:06;;;;;;;3.95;2.67;;;12.60;99.90;;;;;;4949667;29;20090;-78
2022/07/23 10:09:39;;;;;;;7.60;4.50;;;12.50;99.90;;;;;;4949802;29;20106;-80
2022/07/23 10:14:52;;;;;;;3.13;2.38;;;12.50;99.90;;;;;;4951958;29;20027;-78
2022/07/23 10:17:20;;;;;;;2.05;1.35;;;12.40;99.90;;;;;;4951449;29;20046;-79
2022/07/23 10:19:47;;;;;;;2.10;1.50;;;12.40;99.90;;;;;;4950293;29;20501;-78
2022/07/23 10:22:27;;;;;;;5.35;2.00;;;12.40;99.90;;;;;;4949511;29;20039;-77
2022/07/23 10:25:23;;;;;;;3.13;2.30;;;12.40;99.90;;;;;;4951538;29;20355;-79
2022/07/23 10:28:12;;;;;;;7.63;3.25;;;12.40;99.90;;;;;;4951683;29;20031;-77
2022/07/23 10:31:27;;;;;;;4.80;4.05;;;12.30;99.90;;;;;;4949319;29;20039;-79
2022/07/23 10:34:17;;;;;;;3.65;3.17;;;12.30;99.90;;;;;;4865259;29;20053;-80
2022/07/23 10:37:05;;;;;;;8.43;4.45;;;12.30;99.90;;;;;;4948405;29;20027;-75
2022/07/23 10:39:35;;;;;;;9.65;4.88;;;12.30;99.90;;;;;;4950010;29;20078;-79
2022/07/23 10:42:13;;;;;;;8.05;4.97;;;12.30;99.90;;;;;;4940608;29;20047;-78
2022/07/23 10:44:47;;;;;;;7.50;4.53;;;12.30;99.90;;;;;;4933062;29;20379;-77
2022/07/23 10:47:50;;;;;;;5.85;3.65;;;12.30;99.90;;;;;;4933708;29;20074;-78
2022/07/23 10:50:23;;;;;;;4.18;3.30;;;12.30;99.90;;;;;;4938370;29;20039;-79
2022/07/23 10:53:15;;;;;;;5.57;4.07;;;12.30;99.90;;;;;;4950192;29;20102;-78
2022/07/23 10:55:53;;;;;;;6.03;4.13;;;12.30;99.90;;;;;;4950626;28;20118;-78
2022/07/23 10:58:23;;;;;;;6.05;3.35;;;12.30;99.90;;;;;;4951499;29;20031;-77
2022/07/23 11:00:51;;;;;;;4.82;3.53;;;12.30;99.90;;;;;;4950690;28;20410;-78
2022/07/23 11:03:56;;;;;;;5.88;3.63;;;12.20;99.90;;;;;;4950248;29;20505;-78
2022/07/23 11:06:23;;;;;;;4.47;3.53;;;12.20;99.90;;;;;;4942337;29;20031;-78
2022/07/23 11:09:26;;;;;;;4.13;3.53;;;12.20;99.90;;;;;;4936482;29;20027;-74
2022/07/23 11:12:15;;;;;;;4.85;2.65;;;12.10;99.90;;;;;;4944689;29;20055;-75
2022/07/23 11:15:00;;;;;;;4.03;2.17;;;12.10;99.90;;;;;;4942656;29;20110;-73
2022/07/23 11:17:28;;;;;;;5.35;2.22;;;12.10;99.90;;;;;;4950535;29;20050;-77
2022/07/23 11:20:16;;;;;;;1.98;1.35;;;12.00;99.90;;;;;;4949304;28;20118;-76
2022/07/23 11:22:44;;;;;;;2.45;1.50;;;12.00;99.90;;;;;;4943068;29;20046;-75
2022/07/23 11:25:34;;;;;;;1.70;1.17;;;11.90;99.90;;;;;;4949315;29;20028;-76
2022/07/23 11:28:25;;;;;;;2.35;0.98;;;11.80;99.90;;;;;;4933782;29;20040;-74
2022/07/23 11:30:53;;;;;;;2.47;1.38;;;11.80;99.90;;;;;;4943039;29;20035;-76
2022/07/23 11:33:21;;;;;;;2.95;1.30;;;11.70;99.90;;;;;;4951330;28;20072;-74
2022/07/23 11:36:01;;;;;;;1.30;0.80;;;11.60;99.90;;;;;;4948022;29;20027;-76
2022/07/23 11:38:32;;;;;;;1.58;1.00;;;11.60;99.90;;;;;;4950977;29;20036;-74
2022/07/23 11:41:00;;;;;;;2.15;1.60;;;11.70;99.90;;;;;;4949863;29;20059;-76
2022/07/23 11:43:27;;;;;;;2.40;1.45;;;11.70;99.90;;;;;;4933090;29;20031;-78
2022/07/23 11:45:59;;;;;;;2.05;1.83;;;11.60;99.90;;;;;;4946243;29;20024;-75
2022/07/23 11:48:29;;;;;;;2.67;1.95;;;11.60;99.90;;;;;;4951295;29;20039;-75
2022/07/23 11:50:58;;;;;;;2.22;2.03;;;11.60;99.90;;;;;;4945515;29;20023;-75
2022/07/23 11:53:28;;;;;;;3.50;1.67;;;11.60;99.90;;;;;;4942720;29;20059;-74
2022/07/23 11:56:03;;;;;;;3.22;1.42;;;11.50;99.90;;;;;;4949442;28;20375;-76
2022/07/23 11:58:31;;;;;;;3.28;1.55;;;11.50;99.90;;;;;;4936291;29;20032;-76
2022/07/23 12:00:58;;;;;;;2.40;1.30;;;11.50;99.90;;;;;;4952172;29;20047;-75
2022/07/23 12:03:26;;;;;;;2.53;1.83;;;11.50;99.90;;;;;;4938254;29;20043;-76
2022/07/23 12:05:59;;;;;;;2.28;1.70;;;11.50;99.90;;;;;;4951770;29;20498;-74
2022/07/23 12:08:26;;;;;;;3.53;1.88;;;11.40;99.90;;;;;;4935853;29;20066;-76
2022/07/23 12:10:54;;;;;;;3.42;1.48;;;11.40;99.90;;;;;;4945884;29;20406;-75
2022/07/23 12:13:23;;;;;;;3.63;1.58;;;11.50;99.90;;;;;;4954912;29;20391;-74
2022/07/23 12:15:53;;;;;;;3.90;2.03;;;11.50;99.90;;;;;;4952782;28;20027;-77
2022/07/23 12:18:26;;;;;;;3.97;1.80;;;11.40;99.90;;;;;;4953132;29;20110;-75
2022/07/23 12:20:56;;;;;;;1.90;1.70;;;11.40;99.90;;;;;;4951548;29;20038;-78
2022/07/23 12:23:26;;;;;;;2.25;1.60;;;11.40;99.90;;;;;;4954475;29;20035;-75
2022/07/23 12:25:55;;;;;;;1.98;1.55;;;11.30;99.90;;;;;;4948565;29;20039;-74
2022/07/23 12:28:33;;;;;;;3.70;1.55;;;11.20;99.90;;;;;;4953890;29;20450;-74
2022/07/23 12:31:01;;;;;;;3.95;1.75;;;11.20;99.90;;;;;;4951675;29;20506;-76
2022/07/23 12:33:30;;;;;;;4.18;2.55;;;11.10;99.90;;;;;;4953010;29;20126;-74
2022/07/23 12:36:00;;;;;;;3.42;2.25;;;11.00;99.90;;;;;;4952770;29;20074;-76
2022/07/23 12:38:36;;;;;;;3.53;1.98;;;10.90;99.90;;;;;;4946711;29;20016;-75
2022/07/23 12:41:04;;;;;;;3.90;1.98;;;10.90;99.90;;;;;;4951225;29;20348;-76
2022/07/23 12:43:34;;;;;;;10.20;6.43;;;10.80;99.90;;;;;;4953712;29;20067;-73
2022/07/23 12:46:18;;;;;;;7.90;5.22;;;10.70;99.90;;;;;;4951105;29;20102;-75
2022/07/23 12:48:51;;;;;;;5.03;3.53;;;10.70;99.90;;;;;;4954334;29;20031;-74
2022/07/23 12:51:24;;;;;;;3.17;2.63;;;10.70;99.90;;;;;;4951297;29;20439;-75
2022/07/23 12:53:54;;;;;;;2.92;2.47;;;10.80;99.90;;;;;;4935404;29;20031;-74
2022/07/23 12:56:34;;;;;;;8.95;7.68;;;10.80;99.90;;;;;;4948826;29;20059;-76
2022/07/23 12:59:13;;;;;;;6.65;5.75;;;10.80;99.90;;;;;;4946049;29;20046;-74
2022/07/23 13:01:48;;;;;;;4.97;4.10;;;10.80;99.90;;;;;;4947645;29;20039;-75